createdAt,value
2019-06-08T00:00:43.851Z,24.17
2019-06-08T00:01:48.881Z,21.70
2019-06-08T00:02:53.207Z,17.77
2019-06-08T00:03:58.198Z,16.40
2019-06-08T00:05:02.516Z,20.67
2019-06-08T00:06:07.468Z,18.40
2019-06-08T00:07:12.998Z,15.33
2019-06-08T00:08:19.184Z,19.20
2019-06-08T00:09:24.140Z,19.20
2019-06-08T00:10:29.198Z,19.43
2019-06-08T00:11:33.511Z,20.90
2019-06-08T00:12:38.519Z,18.07
2019-06-08T00:13:42.817Z,21.40
2019-06-08T00:14:47.727Z,24.67
2019-06-08T00:15:52.032Z,21.63
2019-06-08T00:16:56.918Z,19.30
2019-06-08T00:18:01.211Z,24.17
2019-06-08T00:19:06.188Z,21.10
2019-06-08T00:20:10.938Z,17.77
2019-06-08T00:21:15.848Z,18.10
2019-06-08T00:22:20.317Z,19.90
2019-06-08T00:23:25.206Z,20.83
2019-06-08T00:24:29.543Z,19.17
2019-06-08T00:25:34.466Z,19.63
2019-06-08T00:26:38.784Z,17.77
2019-06-08T00:27:43.691Z,21.07
2019-06-08T00:28:47.994Z,19.73
2019-06-08T00:29:52.894Z,21.13
2019-06-08T00:30:57.250Z,18.33
2019-06-08T00:32:02.144Z,21.77
2019-06-08T00:33:06.567Z,18.03
2019-06-08T00:34:11.447Z,18.90
2019-06-08T00:35:16.544Z,21.70
2019-06-08T00:36:22.877Z,16.50
2019-06-08T00:37:27.407Z,17.70
2019-06-08T00:38:32.303Z,18.43
2019-06-08T00:39:36.743Z,17.67
2019-06-08T00:40:41.627Z,16.57
2019-06-08T00:41:45.920Z,17.77
2019-06-08T00:42:50.949Z,17.70
2019-06-08T00:43:55.272Z,15.30
2019-06-08T00:45:00.203Z,17.87
2019-06-08T00:46:04.643Z,15.87
2019-06-08T00:47:09.605Z,19.20
2019-06-08T00:48:13.918Z,17.53
2019-06-08T00:49:18.804Z,15.63
2019-06-08T00:50:23.203Z,16.50
2019-06-08T00:51:29.700Z,14.50
2019-06-08T00:52:34.274Z,14.37
2019-06-08T00:53:39.151Z,13.13
2019-06-08T00:54:43.475Z,14.83
2019-06-08T00:55:48.366Z,12.17
2019-06-08T00:56:52.683Z,12.17
2019-06-08T00:57:57.581Z,13.30
2019-06-08T00:59:02.351Z,14.37
2019-06-08T01:00:10.907Z,14.17
2019-06-08T01:01:13.876Z,10.97
2019-06-08T01:02:18.841Z,12.63
2019-06-08T01:03:23.811Z,12.83
2019-06-08T01:04:29.177Z,9.93
2019-06-08T01:05:33.690Z,10.90
2019-06-08T01:06:38.600Z,10.03
2019-06-08T01:07:42.938Z,10.33
2019-06-08T01:08:47.975Z,9.90
2019-06-08T01:09:52.346Z,8.30
2019-06-08T01:10:57.348Z,8.03
2019-06-08T01:12:01.701Z,11.43
2019-06-08T01:13:06.713Z,8.60
2019-06-08T01:14:11.140Z,8.20
2019-06-08T01:15:17.058Z,7.03
2019-06-08T01:16:22.821Z,7.20
2019-06-08T01:17:29.316Z,6.77
2019-06-08T01:18:33.774Z,5.67
2019-06-08T01:19:39.442Z,6.43
2019-06-08T01:20:43.780Z,6.17
2019-06-08T01:21:48.851Z,10.07
2019-06-08T01:22:53.250Z,6.00
2019-06-08T01:23:58.158Z,5.63
2019-06-08T01:25:02.575Z,7.17
2019-06-08T01:26:07.467Z,6.50
2019-06-08T01:27:12.219Z,5.70
2019-06-08T01:28:17.123Z,5.47
2019-06-08T01:29:22.267Z,6.57
2019-06-08T01:30:28.410Z,5.90
2019-06-08T01:31:33.001Z,6.07
2019-06-08T01:32:38.051Z,6.07
2019-06-08T01:33:42.403Z,5.93
2019-06-08T01:34:47.543Z,6.93
2019-06-08T01:35:51.871Z,18.40
2019-06-08T01:36:57.027Z,15.67
2019-06-08T01:38:01.487Z,11.47
2019-06-08T01:39:07.653Z,7.53
2019-06-08T01:40:12.540Z,7.97
2019-06-08T01:41:17.431Z,7.10
2019-06-08T01:42:21.796Z,5.83
2019-06-08T01:43:27.768Z,5.00
2019-06-08T01:44:32.166Z,7.33
2019-06-08T01:45:37.119Z,5.57
2019-06-08T01:46:41.489Z,5.70
2019-06-08T01:47:46.457Z,6.00
2019-06-08T01:48:50.857Z,5.37
2019-06-08T01:49:55.799Z,5.73
2019-06-08T01:51:00.124Z,5.83
2019-06-08T01:52:05.980Z,6.20
2019-06-08T01:53:10.290Z,5.50
2019-06-08T01:54:15.173Z,4.90
2019-06-08T01:55:19.486Z,5.37
2019-06-08T01:56:24.924Z,5.67
2019-06-08T01:57:29.420Z,4.83
2019-06-08T01:58:34.471Z,4.53
2019-06-08T01:59:38.791Z,7.77
2019-06-08T02:00:43.795Z,6.83
2019-06-08T02:01:48.141Z,5.37
2019-06-08T02:02:53.353Z,7.90
2019-06-08T02:03:57.747Z,7.53
2019-06-08T02:05:02.834Z,5.03
2019-06-08T02:06:07.328Z,6.43
2019-06-08T02:07:12.371Z,5.20
2019-06-08T02:08:16.827Z,4.93
2019-06-08T02:09:21.806Z,4.40
2019-06-08T02:10:26.704Z,4.60
2019-06-08T02:11:32.949Z,5.63
2019-06-08T02:12:37.622Z,6.07
2019-06-08T02:13:42.530Z,5.93
2019-06-08T02:14:46.848Z,7.37
2019-06-08T02:15:51.816Z,5.00
2019-06-08T02:16:56.159Z,7.17
2019-06-08T02:18:01.171Z,4.93
2019-06-08T02:19:05.556Z,5.97
2019-06-08T02:20:11.159Z,5.30
2019-06-08T02:21:15.487Z,5.73
2019-06-08T02:22:20.424Z,6.93
2019-06-08T02:23:24.784Z,5.40
2019-06-08T02:24:29.660Z,5.57
2019-06-08T02:25:35.546Z,4.77
2019-06-08T02:26:40.707Z,5.30
2019-06-08T02:27:45.978Z,6.27
2019-06-08T02:28:51.011Z,4.43
2019-06-08T02:29:55.421Z,5.27
2019-06-08T02:31:00.537Z,4.90
2019-06-08T02:32:05.064Z,6.20
2019-06-08T02:33:10.091Z,7.93
2019-06-08T02:34:14.533Z,4.47
2019-06-08T02:35:20.193Z,4.57
2019-06-08T02:36:25.001Z,4.63
2019-06-08T02:37:30.847Z,6.87
2019-06-08T02:38:36.063Z,4.60
2019-06-08T02:39:41.231Z,5.17
2019-06-08T02:40:45.672Z,5.00
2019-06-08T02:41:50.597Z,5.13
2019-06-08T02:42:55.058Z,5.40
2019-06-08T02:44:00.027Z,5.67
2019-06-08T02:45:06.067Z,4.53
2019-06-08T02:46:11.155Z,5.13
2019-06-08T02:47:16.395Z,4.40
2019-06-08T02:48:21.610Z,4.67
2019-06-08T02:49:25.947Z,5.13
2019-06-08T02:50:53.331Z,6.03
2019-06-08T02:51:57.687Z,4.47
2019-06-08T02:53:02.764Z,5.13
2019-06-08T02:54:07.046Z,4.67
2019-06-08T02:55:14.349Z,3.40
2019-06-08T02:56:21.319Z,4.63
2019-06-08T02:57:29.165Z,4.90
2019-06-08T02:58:36.921Z,5.63
2019-06-08T02:59:43.937Z,4.90
2019-06-08T03:00:49.272Z,3.80
2019-06-08T03:01:56.143Z,4.83
2019-06-08T03:03:01.098Z,4.13
2019-06-08T03:04:06.276Z,4.73
2019-06-08T03:05:12.202Z,5.23
2019-06-08T03:06:19.581Z,5.43
2019-06-08T03:07:24.916Z,7.27
2019-06-08T03:08:34.395Z,4.90
2019-06-08T03:09:41.089Z,3.00
2019-06-08T03:10:46.235Z,4.37
2019-06-08T03:11:52.822Z,5.87
2019-06-08T03:12:58.614Z,3.83
2019-06-08T03:14:03.003Z,3.17
2019-06-08T03:15:09.673Z,3.83
2019-06-08T03:16:13.973Z,4.90
2019-06-08T03:17:18.872Z,4.10
2019-06-08T03:18:23.197Z,5.30
2019-06-08T03:19:28.124Z,3.57
2019-06-08T03:20:33.452Z,4.30
2019-06-08T03:21:40.402Z,3.30
2019-06-08T03:22:44.628Z,4.83
2019-06-08T03:23:49.507Z,4.43
2019-06-08T03:24:53.804Z,5.63
2019-06-08T03:25:59.395Z,4.43
2019-06-08T03:27:03.878Z,3.53
2019-06-08T03:28:08.863Z,4.27
2019-06-08T03:29:13.246Z,4.23
2019-06-08T03:30:19.610Z,3.73
2019-06-08T03:31:24.529Z,6.80
2019-06-08T03:32:29.501Z,3.70
2019-06-08T03:33:35.867Z,4.30
2019-06-08T03:34:51.185Z,7.10
2019-06-08T03:35:55.439Z,3.90
2019-06-08T03:36:56.649Z,4.13
2019-06-08T03:37:59.076Z,6.83
2019-06-08T03:39:05.843Z,3.50
2019-06-08T03:40:10.513Z,5.80
2019-06-08T03:41:15.401Z,3.57
2019-06-08T03:42:19.723Z,3.17
2019-06-08T03:43:24.606Z,2.97
2019-06-08T03:44:28.900Z,3.87
2019-06-08T03:45:34.271Z,7.13
2019-06-08T03:46:39.342Z,2.87
2019-06-08T03:47:45.681Z,5.33
2019-06-08T03:48:50.176Z,5.10
2019-06-08T03:49:57.610Z,6.10
2019-06-08T03:51:01.080Z,4.33
2019-06-08T03:52:06.134Z,3.30
2019-06-08T03:53:10.412Z,3.67
2019-06-08T03:54:15.303Z,2.50
2019-06-08T03:55:19.593Z,4.23
2019-06-08T03:56:24.465Z,3.57
2019-06-08T03:57:28.773Z,4.20
2019-06-08T03:58:34.364Z,4.23
2019-06-08T03:59:40.938Z,8.33
2019-06-08T04:00:47.065Z,3.30
2019-06-08T04:01:52.132Z,3.63
2019-06-08T04:02:57.036Z,3.77
2019-06-08T04:04:01.302Z,4.33
2019-06-08T04:05:06.406Z,2.90
2019-06-08T04:06:10.704Z,4.50
2019-06-08T04:07:15.583Z,4.03
2019-06-08T04:08:19.908Z,4.73
2019-06-08T04:09:24.860Z,6.20
2019-06-08T04:10:29.162Z,3.63
2019-06-08T04:11:34.120Z,6.70
2019-06-08T04:12:39.938Z,3.87
2019-06-08T04:13:46.902Z,2.83
2019-06-08T04:14:51.063Z,3.07
2019-06-08T04:15:56.010Z,4.03
2019-06-08T04:17:00.348Z,4.80
2019-06-08T04:18:05.450Z,8.27
2019-06-08T04:19:09.767Z,4.23
2019-06-08T04:20:14.909Z,3.33
2019-06-08T04:21:19.229Z,5.27
2019-06-08T04:22:24.115Z,4.27
2019-06-08T04:23:28.409Z,3.40
2019-06-08T04:24:33.392Z,3.80
2019-06-08T04:25:38.263Z,3.00
2019-06-08T04:26:45.021Z,4.70
2019-06-08T04:27:51.077Z,4.17
2019-06-08T04:28:56.157Z,5.90
2019-06-08T04:30:00.543Z,5.30
2019-06-08T04:31:05.490Z,4.00
2019-06-08T04:32:09.885Z,7.77
2019-06-08T04:33:14.819Z,3.77
2019-06-08T04:34:19.137Z,4.43
2019-06-08T04:35:24.068Z,4.67
2019-06-08T04:36:28.372Z,5.37
2019-06-08T04:37:33.260Z,3.87
2019-06-08T04:38:39.014Z,3.20
2019-06-08T04:39:44.455Z,4.07
2019-06-08T04:40:50.123Z,7.17
2019-06-08T04:41:55.205Z,3.70
2019-06-08T04:42:59.625Z,2.53
2019-06-08T04:44:04.648Z,4.07
2019-06-08T04:45:09.316Z,4.70
2019-06-08T04:46:14.326Z,3.20
2019-06-08T04:47:18.627Z,6.03
2019-06-08T04:48:23.515Z,4.73
2019-06-08T04:49:27.804Z,3.43
2019-06-08T04:50:32.770Z,2.60
2019-06-08T04:51:38.721Z,4.70
2019-06-08T04:52:44.914Z,5.03
2019-06-08T04:53:49.862Z,5.80
2019-06-08T04:54:54.887Z,5.03
2019-06-08T04:55:59.193Z,4.30
2019-06-08T04:57:04.212Z,5.13
2019-06-08T04:58:08.523Z,5.67
2019-06-08T04:59:13.503Z,6.20
2019-06-08T05:00:17.984Z,5.03
2019-06-08T05:01:22.931Z,4.07
2019-06-08T05:02:27.341Z,5.47
2019-06-08T05:03:32.198Z,5.20
2019-06-08T05:04:36.518Z,4.83
2019-06-08T05:05:43.198Z,3.40
2019-06-08T05:06:47.378Z,4.67
2019-06-08T05:07:52.283Z,5.10
2019-06-08T05:08:56.584Z,3.90
2019-06-08T05:10:01.493Z,5.07
2019-06-08T05:11:05.929Z,3.57
2019-06-08T05:12:10.805Z,2.30
2019-06-08T05:13:15.130Z,1.73
2019-06-08T05:14:20.058Z,3.00
2019-06-08T05:15:24.465Z,2.20
2019-06-08T05:16:29.425Z,3.43
2019-06-08T05:17:33.781Z,2.10
2019-06-08T05:18:39.145Z,3.23
2019-06-08T05:19:45.398Z,4.53
2019-06-08T05:20:51.365Z,4.27
2019-06-08T05:21:56.115Z,4.13
2019-06-08T05:23:01.064Z,4.10
2019-06-08T05:24:05.461Z,4.97
2019-06-08T05:25:10.398Z,2.60
2019-06-08T05:26:14.752Z,3.73
2019-06-08T05:27:19.734Z,4.40
2019-06-08T05:28:24.165Z,2.53
2019-06-08T05:29:29.111Z,2.13
2019-06-08T05:30:33.495Z,3.10
2019-06-08T05:31:39.374Z,2.77
2019-06-08T05:32:43.849Z,3.57
2019-06-08T05:33:49.714Z,3.07
2019-06-08T05:34:54.267Z,2.70
2019-06-08T05:35:59.224Z,2.90
2019-06-08T05:37:03.529Z,2.23
2019-06-08T05:38:09.287Z,1.87
2019-06-08T05:39:13.597Z,3.77
2019-06-08T05:40:18.823Z,4.73
2019-06-08T05:41:24.169Z,3.93
2019-06-08T05:42:29.346Z,2.77
2019-06-08T05:43:33.723Z,3.27
2019-06-08T05:44:39.596Z,3.37
2019-06-08T05:45:45.676Z,4.43
2019-06-08T05:46:50.828Z,4.47
2019-06-08T05:47:55.219Z,2.43
2019-06-08T05:49:00.128Z,5.20
2019-06-08T05:50:05.008Z,2.27
2019-06-08T05:51:09.901Z,2.47
2019-06-08T05:52:14.206Z,2.63
2019-06-08T05:53:19.104Z,3.60
2019-06-08T05:54:23.402Z,3.20
2019-06-08T05:55:28.360Z,2.17
2019-06-08T05:56:32.751Z,3.37
2019-06-08T05:57:37.671Z,3.90
2019-06-08T05:58:41.959Z,2.87
2019-06-08T05:59:48.187Z,4.13
2019-06-08T06:00:52.620Z,4.80
2019-06-08T06:01:57.518Z,2.13
2019-06-08T06:03:01.812Z,2.67
2019-06-08T06:04:06.776Z,5.10
2019-06-08T06:05:11.157Z,5.97
2019-06-08T06:06:16.127Z,2.63
2019-06-08T06:07:20.428Z,2.27
2019-06-08T06:08:25.335Z,3.60
2019-06-08T06:09:29.668Z,5.50
2019-06-08T06:10:34.623Z,5.40
2019-06-08T06:11:38.907Z,3.57
2019-06-08T06:12:45.262Z,4.10
2019-06-08T06:13:49.787Z,3.73
2019-06-08T06:14:54.691Z,3.47
2019-06-08T06:15:58.980Z,3.87
2019-06-08T06:17:03.871Z,5.20
2019-06-08T06:18:08.240Z,5.20
2019-06-08T06:19:13.188Z,4.03
2019-06-08T06:20:17.662Z,4.30
2019-06-08T06:21:22.550Z,2.53
2019-06-08T06:22:26.848Z,3.10
2019-06-08T06:23:31.835Z,3.93
2019-06-08T06:24:36.168Z,4.27
2019-06-08T06:25:41.430Z,6.70
2019-06-08T06:26:45.897Z,3.93
2019-06-08T06:27:51.798Z,4.17
2019-06-08T06:28:56.319Z,2.77
2019-06-08T06:30:01.278Z,4.70
2019-06-08T06:31:05.667Z,4.07
2019-06-08T06:32:10.625Z,2.30
2019-06-08T06:33:14.995Z,2.93
2019-06-08T06:34:19.932Z,2.77
2019-06-08T06:35:24.298Z,4.40
2019-06-08T06:36:29.246Z,2.47
2019-06-08T06:37:33.729Z,5.47
2019-06-08T06:38:38.679Z,2.63
2019-06-08T06:39:43.925Z,6.83
2019-06-08T06:40:50.053Z,5.10
2019-06-08T06:41:54.573Z,3.73
2019-06-08T06:42:59.475Z,4.73
2019-06-08T06:44:04.594Z,5.57
2019-06-08T06:45:09.972Z,4.70
2019-06-08T06:46:14.347Z,4.47
2019-06-08T06:47:19.258Z,3.17
2019-06-08T06:48:23.825Z,4.60
2019-06-08T06:49:29.003Z,3.80
2019-06-08T06:50:33.290Z,4.50
2019-06-08T06:51:38.272Z,3.37
2019-06-08T06:52:42.811Z,5.23
2019-06-08T06:53:48.808Z,3.43
2019-06-08T06:54:53.374Z,3.07
2019-06-08T06:55:58.311Z,3.47
2019-06-08T06:57:02.653Z,5.50
2019-06-08T06:58:07.620Z,5.57
2019-06-08T06:59:12.905Z,3.13
2019-06-08T07:00:20.957Z,3.73
2019-06-08T07:01:25.335Z,6.37
2019-06-08T07:02:30.862Z,3.47
2019-06-08T07:03:35.223Z,4.17
2019-06-08T07:04:40.157Z,3.33
2019-06-08T07:05:45.681Z,4.03
2019-06-08T07:06:50.727Z,5.53
2019-06-08T07:07:55.159Z,2.50
2019-06-08T07:09:00.047Z,6.73
2019-06-08T07:10:05.213Z,2.80
2019-06-08T07:11:10.103Z,7.97
2019-06-08T07:12:14.444Z,3.30
2019-06-08T07:13:19.337Z,4.03
2019-06-08T07:14:23.632Z,3.03
2019-06-08T07:15:29.443Z,3.23
2019-06-08T07:16:36.689Z,2.77
2019-06-08T07:17:42.455Z,2.67
2019-06-08T07:18:48.097Z,6.57
2019-06-08T07:19:54.630Z,2.57
2019-06-08T07:20:59.181Z,2.57
2019-06-08T07:22:04.154Z,3.37
2019-06-08T07:23:08.499Z,2.50
2019-06-08T07:24:13.384Z,2.30
2019-06-08T07:25:17.678Z,3.83
2019-06-08T07:26:22.555Z,3.77
2019-06-08T07:27:26.889Z,3.07
2019-06-08T07:28:31.842Z,3.73
2019-06-08T07:29:36.171Z,4.77
2019-06-08T07:30:41.044Z,5.10
2019-06-08T07:31:46.915Z,4.70
2019-06-08T07:32:53.010Z,3.03
2019-06-08T07:33:57.620Z,4.70
2019-06-08T07:35:02.605Z,4.30
2019-06-08T07:36:06.914Z,2.60
2019-06-08T07:37:11.837Z,3.90
2019-06-08T07:38:16.217Z,3.00
2019-06-08T07:39:21.215Z,4.77
2019-06-08T07:40:25.523Z,3.77
2019-06-08T07:41:30.416Z,3.30
2019-06-08T07:42:34.789Z,3.40
2019-06-08T07:43:39.680Z,3.23
2019-06-08T07:44:44.062Z,6.20
2019-06-08T07:45:49.874Z,3.27
2019-06-08T07:46:55.785Z,3.33
2019-06-08T07:48:00.875Z,6.93
2019-06-08T07:49:05.279Z,4.90
2019-06-08T07:50:10.308Z,5.33
2019-06-08T07:51:14.589Z,4.90
2019-06-08T07:52:19.521Z,4.47
2019-06-08T07:53:23.820Z,5.37
2019-06-08T07:54:28.708Z,4.47
2019-06-08T07:55:33.070Z,5.50
2019-06-08T07:56:37.928Z,6.63
2019-06-08T07:57:42.329Z,8.73
2019-06-08T07:58:49.540Z,3.97
2019-06-08T07:59:54.574Z,3.80
2019-06-08T08:01:07.693Z,4.63
2019-06-08T08:02:06.180Z,5.53
2019-06-08T08:03:11.197Z,5.37
2019-06-08T08:04:15.806Z,4.10
2019-06-08T08:05:20.802Z,5.80
2019-06-08T08:06:25.109Z,3.97
2019-06-08T08:07:30.154Z,2.77
2019-06-08T08:08:34.498Z,2.77
2019-06-08T08:09:39.480Z,3.07
2019-06-08T08:10:43.864Z,3.37
2019-06-08T08:11:48.874Z,4.27
2019-06-08T08:12:53.195Z,4.53
2019-06-08T08:13:59.094Z,2.27
2019-06-08T08:15:03.735Z,6.33
2019-06-08T08:16:08.707Z,3.87
2019-06-08T08:17:13.015Z,3.20
2019-06-08T08:18:17.884Z,3.10
2019-06-08T08:19:22.219Z,2.73
2019-06-08T08:20:27.196Z,3.53
2019-06-08T08:21:31.502Z,3.43
2019-06-08T08:22:38.159Z,4.87
2019-06-08T08:23:42.573Z,3.20
2019-06-08T08:24:50.414Z,3.73
2019-06-08T08:25:53.591Z,4.50
2019-06-08T08:27:02.074Z,3.30
2019-06-08T08:28:04.704Z,4.87
2019-06-08T08:29:09.603Z,4.57
2019-06-08T08:30:17.753Z,3.70
2019-06-08T08:31:22.211Z,4.90
2019-06-08T08:32:28.339Z,3.20
2019-06-08T08:33:33.387Z,5.67
2019-06-08T08:34:38.251Z,6.90
2019-06-08T08:35:43.484Z,7.30
2019-06-08T08:36:48.180Z,4.20
2019-06-08T08:37:57.001Z,3.53
2019-06-08T08:39:02.322Z,4.37
2019-06-08T08:40:07.846Z,4.13
2019-06-08T08:41:12.388Z,6.03
2019-06-08T08:42:18.001Z,3.87
2019-06-08T08:43:23.153Z,5.23
2019-06-08T08:44:28.379Z,3.73
2019-06-08T08:45:32.842Z,5.43
2019-06-08T08:46:38.656Z,4.57
2019-06-08T08:47:43.437Z,3.63
2019-06-08T08:48:48.680Z,6.17
2019-06-08T08:49:54.034Z,6.57
2019-06-08T08:51:01.429Z,8.53
2019-06-08T08:52:05.680Z,4.73
2019-06-08T08:53:10.566Z,3.47
2019-06-08T08:54:14.855Z,6.13
2019-06-08T08:55:20.529Z,4.13
2019-06-08T08:56:25.103Z,3.60
2019-06-08T08:57:30.045Z,5.83
2019-06-08T08:58:34.528Z,11.87
2019-06-08T08:59:39.569Z,6.17
2019-06-08T09:00:44.214Z,4.00
2019-06-08T09:01:51.254Z,4.20
2019-06-08T09:03:13.987Z,7.30
2019-06-08T09:04:04.987Z,6.07
2019-06-08T09:05:08.679Z,5.60
2019-06-08T09:06:13.737Z,5.20
2019-06-08T09:07:18.461Z,2.93
2019-06-08T09:08:23.571Z,5.20
2019-06-08T09:09:28.821Z,4.63
2019-06-08T09:10:34.009Z,7.53
2019-06-08T09:11:41.135Z,7.73
2019-06-08T09:12:45.012Z,5.13
2019-06-08T09:13:49.503Z,6.70
2019-06-08T09:14:56.065Z,4.57
2019-06-08T09:16:03.469Z,4.10
2019-06-08T09:17:08.555Z,5.20
2019-06-08T09:18:13.303Z,3.00
2019-06-08T09:19:20.862Z,4.70
2019-06-08T09:20:24.545Z,6.57
2019-06-08T09:21:29.520Z,8.03
2019-06-08T09:22:49.260Z,4.27
2019-06-08T09:23:40.779Z,11.37
2019-06-08T09:24:45.088Z,5.37
2019-06-08T09:25:52.259Z,4.73
2019-06-08T09:27:00.013Z,4.23
2019-06-08T09:28:04.817Z,4.87
2019-06-08T09:29:11.290Z,5.57
2019-06-08T09:30:18.067Z,5.80
2019-06-08T09:31:21.683Z,11.10
2019-06-08T09:32:28.231Z,5.17
2019-06-08T09:34:52.950Z,7.93
2019-06-08T09:35:59.920Z,5.53
2019-06-08T09:37:05.007Z,3.40
2019-06-08T09:38:10.965Z,4.37
2019-06-08T09:39:15.502Z,5.57
2019-06-08T09:40:20.460Z,3.90
2019-06-08T09:41:24.828Z,4.10
2019-06-08T09:42:29.780Z,4.27
2019-06-08T09:43:34.096Z,6.13
2019-06-08T09:44:39.048Z,5.97
2019-06-08T09:45:43.419Z,8.17
2019-06-08T09:46:48.363Z,5.27
2019-06-08T09:47:53.730Z,7.53
2019-06-08T09:49:05.896Z,8.20
2019-06-08T09:50:05.752Z,5.57
2019-06-08T09:51:11.480Z,3.77
2019-06-08T09:52:18.200Z,4.90
2019-06-08T09:53:28.489Z,4.57
2019-06-08T09:54:28.547Z,6.77
2019-06-08T09:55:33.642Z,4.17
2019-06-08T09:56:38.113Z,4.70
2019-06-08T09:57:43.264Z,4.73
2019-06-08T09:58:48.804Z,5.30
2019-06-08T09:59:55.197Z,6.77
2019-06-08T10:01:02.876Z,10.23
2019-06-08T10:02:12.538Z,4.17
2019-06-08T10:03:13.082Z,3.33
2019-06-08T10:04:17.984Z,3.90
2019-06-08T10:05:22.295Z,4.97
2019-06-08T10:06:27.168Z,4.73
2019-06-08T10:07:31.512Z,7.93
2019-06-08T10:08:38.639Z,4.97
2019-06-08T10:09:43.459Z,7.77
2019-06-08T10:10:49.101Z,7.27
2019-06-08T10:11:54.273Z,4.37
2019-06-08T10:13:01.322Z,6.30
2019-06-08T10:14:11.697Z,5.73
2019-06-08T10:15:12.779Z,4.90
2019-06-08T10:16:18.580Z,4.43
2019-06-08T10:17:23.636Z,4.47
2019-06-08T10:18:28.487Z,4.33
2019-06-08T10:19:33.621Z,5.07
2019-06-08T10:20:38.505Z,4.10
2019-06-08T10:21:43.670Z,5.23
2019-06-08T10:22:50.324Z,4.93
2019-06-08T10:23:55.070Z,3.30
2019-06-08T10:25:02.807Z,5.90
2019-06-08T10:26:06.663Z,3.87
2019-06-08T10:27:11.686Z,7.20
2019-06-08T10:28:21.018Z,5.63
2019-06-08T10:29:23.040Z,5.20
2019-06-08T10:30:28.401Z,5.63
2019-06-08T10:31:39.891Z,4.10
2019-06-08T10:32:40.636Z,4.57
2019-06-08T10:33:48.015Z,7.00
2019-06-08T10:34:51.599Z,6.00
2019-06-08T10:35:59.117Z,5.27
2019-06-08T10:37:06.753Z,4.37
2019-06-08T10:38:11.854Z,7.57
2019-06-08T10:39:15.457Z,3.43
2019-06-08T10:40:20.592Z,5.07
2019-06-08T10:41:27.659Z,3.43
2019-06-08T10:42:31.463Z,4.27
2019-06-08T10:43:38.544Z,5.00
2019-06-08T10:44:42.739Z,3.20
2019-06-08T10:45:48.308Z,6.63
2019-06-08T10:46:53.679Z,5.00
2019-06-08T10:48:00.842Z,2.93
2019-06-08T10:49:08.537Z,7.23
2019-06-08T10:50:15.340Z,6.83
2019-06-08T10:51:18.681Z,5.77
2019-06-08T10:52:23.618Z,3.13
2019-06-08T10:53:29.764Z,6.10
2019-06-08T10:54:34.636Z,6.43
2019-06-08T10:55:40.808Z,3.70
2019-06-08T10:56:48.404Z,7.30
2019-06-08T10:57:52.013Z,3.10
2019-06-08T10:59:00.249Z,5.30
2019-06-08T11:00:16.651Z,5.87
2019-06-08T11:01:12.220Z,3.93
2019-06-08T11:02:18.680Z,6.50
2019-06-08T11:03:22.993Z,3.30
2019-06-08T11:04:28.635Z,5.60
2019-06-08T11:05:33.962Z,5.07
2019-06-08T11:06:40.259Z,7.00
2019-06-08T11:07:47.860Z,5.43
2019-06-08T11:08:51.068Z,5.20
2019-06-08T11:09:58.251Z,9.93
2019-06-08T11:11:02.865Z,3.10
2019-06-08T11:12:14.606Z,4.30
2019-06-08T11:13:16.784Z,3.37
2019-06-08T11:14:22.811Z,8.47
2019-06-08T11:15:29.601Z,4.97
2019-06-08T11:16:34.234Z,4.57
2019-06-08T11:17:38.601Z,9.77
2019-06-08T11:18:43.751Z,4.97
2019-06-08T11:19:48.247Z,5.37
2019-06-08T11:20:53.204Z,8.20
2019-06-08T11:22:02.678Z,3.07
2019-06-08T11:23:09.801Z,4.70
2019-06-08T11:24:23.113Z,4.70
2019-06-08T11:25:20.015Z,3.83
2019-06-08T11:26:25.022Z,4.67
2019-06-08T11:27:30.315Z,3.83
2019-06-08T11:28:35.237Z,6.17
2019-06-08T11:29:40.354Z,5.53
2019-06-08T11:30:47.941Z,6.43
2019-06-08T11:31:52.504Z,7.03
2019-06-08T11:32:57.756Z,5.33
2019-06-08T11:34:03.983Z,6.20
2019-06-08T11:35:12.408Z,6.57
2019-06-08T11:36:18.591Z,3.93
2019-06-08T11:37:22.196Z,4.93
2019-06-08T11:38:28.876Z,4.10
2019-06-08T11:39:33.773Z,5.47
2019-06-08T11:40:38.843Z,7.40
2019-06-08T11:41:43.242Z,3.17
2019-06-08T11:42:48.579Z,4.77
2019-06-08T11:43:53.244Z,9.63
2019-06-08T11:44:58.652Z,6.03
2019-06-08T11:46:04.736Z,6.37
2019-06-08T11:47:12.560Z,3.77
2019-06-08T11:48:18.066Z,3.33
2019-06-08T11:49:22.387Z,4.23
2019-06-08T11:50:41.528Z,5.23
2019-06-08T11:51:47.659Z,6.30
2019-06-08T11:52:50.939Z,5.37
2019-06-08T11:53:56.056Z,4.10
2019-06-08T11:55:02.270Z,3.93
2019-06-08T11:56:09.456Z,5.30
2019-06-08T11:57:13.283Z,7.77
2019-06-08T11:58:22.674Z,8.40
2019-06-08T11:59:25.267Z,4.83
2019-06-08T12:01:13.147Z,5.33
2019-06-08T12:02:18.332Z,4.83
2019-06-08T12:03:22.475Z,5.70
2019-06-08T12:04:28.363Z,5.37
2019-06-08T12:05:33.040Z,2.90
2019-06-08T12:06:38.016Z,3.07
2019-06-08T12:07:42.355Z,4.50
2019-06-08T12:08:47.381Z,6.20
2019-06-08T12:09:51.804Z,5.43
2019-06-08T12:11:01.226Z,4.83
2019-06-08T12:12:03.035Z,4.90
2019-06-08T12:13:09.751Z,4.80
2019-06-08T12:14:14.435Z,5.27
2019-06-08T12:15:21.212Z,4.40
2019-06-08T12:16:28.103Z,6.23
2019-06-08T12:17:32.220Z,5.00
2019-06-08T12:18:40.065Z,3.53
2019-06-08T12:19:43.357Z,4.00
2019-06-08T12:20:48.841Z,3.73
2019-06-08T12:21:53.875Z,5.87
2019-06-08T12:22:58.263Z,4.60
2019-06-08T12:24:04.165Z,3.33
2019-06-08T12:25:10.206Z,5.83
2019-06-08T12:26:15.473Z,5.30
2019-06-08T12:27:29.571Z,5.77
2019-06-08T12:28:28.052Z,5.93
2019-06-08T12:29:32.644Z,4.43
2019-06-08T12:30:38.432Z,2.97
2019-06-08T12:31:42.924Z,6.00
2019-06-08T12:32:47.957Z,4.47
2019-06-08T12:33:52.847Z,3.87
2019-06-08T12:34:59.982Z,3.37
2019-06-08T12:36:03.888Z,3.73
2019-06-08T12:37:15.665Z,3.87
2019-06-08T12:38:16.496Z,3.63
2019-06-08T12:39:21.637Z,4.03
2019-06-08T12:40:28.079Z,8.10
2019-06-08T12:41:32.718Z,5.57
2019-06-08T12:42:38.236Z,6.40
2019-06-08T12:43:43.621Z,9.60
2019-06-08T12:44:47.954Z,4.77
2019-06-08T12:45:52.806Z,6.17
2019-06-08T12:46:58.686Z,4.87
2019-06-08T12:48:03.823Z,4.93
2019-06-08T12:49:10.047Z,4.60
2019-06-08T12:50:16.458Z,5.10
2019-06-08T12:51:21.488Z,2.83
2019-06-08T12:52:29.546Z,3.90
2019-06-08T12:53:33.055Z,3.43
2019-06-08T12:54:37.931Z,4.90
2019-06-08T12:55:42.318Z,5.70
2019-06-08T12:56:47.981Z,4.30
2019-06-08T12:57:52.526Z,2.40
2019-06-08T12:58:58.038Z,4.73
2019-06-08T13:00:02.540Z,3.00
2019-06-08T13:01:09.337Z,2.57
2019-06-08T13:02:17.479Z,4.47
2019-06-08T13:03:20.466Z,5.03
2019-06-08T13:04:24.766Z,4.00
2019-06-08T13:05:29.754Z,4.20
2019-06-08T13:06:34.131Z,5.27
2019-06-08T13:07:39.140Z,5.53
2019-06-08T13:08:43.478Z,4.30
2019-06-08T13:09:48.394Z,5.13
2019-06-08T13:10:52.815Z,5.60
2019-06-08T13:11:59.426Z,3.97
2019-06-08T13:13:04.019Z,7.47
2019-06-08T13:14:10.280Z,5.67
2019-06-08T13:15:17.205Z,8.50
2019-06-08T13:16:24.301Z,7.70
2019-06-08T13:17:28.166Z,4.97
2019-06-08T13:18:33.072Z,4.93
2019-06-08T13:19:38.720Z,2.83
2019-06-08T13:20:44.043Z,6.97
2019-06-08T13:21:48.766Z,3.47
2019-06-08T13:22:53.866Z,6.57
2019-06-08T13:23:58.379Z,3.73
2019-06-08T13:25:16.000Z,4.07
2019-06-08T13:26:09.366Z,5.53
2019-06-08T13:27:15.426Z,4.70
2019-06-08T13:28:25.079Z,4.97
2019-06-08T13:29:28.046Z,5.03
2019-06-08T13:30:32.605Z,4.53
2019-06-08T13:31:38.322Z,6.50
2019-06-08T13:32:42.895Z,8.13
2019-06-08T13:33:48.609Z,5.83
2019-06-08T13:34:53.018Z,4.00
2019-06-08T13:35:58.159Z,5.40
2019-06-08T13:37:02.588Z,4.93
2019-06-08T13:38:08.800Z,5.20
2019-06-08T13:39:13.284Z,6.37
2019-06-08T13:40:21.594Z,5.77
2019-06-08T13:41:26.675Z,5.47
2019-06-08T13:42:31.086Z,5.23
2019-06-08T13:43:35.383Z,5.57
2019-06-08T13:44:40.274Z,11.93
2019-06-08T13:45:44.577Z,5.27
2019-06-08T13:46:49.454Z,5.93
2019-06-08T13:47:53.858Z,10.33
2019-06-08T13:48:58.887Z,5.07
2019-06-08T13:50:03.563Z,6.37
2019-06-08T13:51:11.799Z,4.83
2019-06-08T13:52:15.666Z,4.73
2019-06-08T13:53:27.305Z,5.60
2019-06-08T13:54:28.515Z,2.67
2019-06-08T13:55:48.528Z,6.87
2019-06-08T13:56:39.831Z,5.60
2019-06-08T13:57:44.695Z,3.50
2019-06-08T13:58:49.002Z,3.80
2019-06-08T13:59:53.947Z,5.17
2019-06-08T14:00:59.796Z,4.87
2019-06-08T14:02:05.245Z,8.57
2019-06-08T14:03:09.702Z,6.80
2019-06-08T14:04:14.981Z,6.07
2019-06-08T14:05:30.847Z,7.83
2019-06-08T14:06:35.315Z,7.03
2019-06-08T14:07:39.597Z,8.80
2019-06-08T14:08:45.135Z,5.77
2019-06-08T14:09:50.282Z,5.30
2019-06-08T14:11:00.533Z,6.40
2019-06-08T14:12:01.310Z,5.73
2019-06-08T14:13:07.207Z,4.37
2019-06-08T14:14:11.488Z,6.10
2019-06-08T14:15:17.264Z,4.73
2019-06-08T14:16:23.807Z,8.87
2019-06-08T14:17:28.559Z,5.67
2019-06-08T14:18:34.209Z,5.27
2019-06-08T14:19:39.403Z,5.03
2019-06-08T14:20:43.705Z,5.53
2019-06-08T14:21:48.935Z,6.37
2019-06-08T14:22:53.271Z,6.87
2019-06-08T14:23:58.839Z,3.37
2019-06-08T14:25:03.392Z,6.63
2019-06-08T14:26:08.434Z,6.27
2019-06-08T14:27:12.842Z,7.93
2019-06-08T14:28:19.848Z,4.67